Latest Weather Observations for Ngukurr AWS

IDD60801

Issued at 5:33 pm CST Tuesday 27 January 2015 (issued every 30 minutes, with the page automatically refreshed every 10 minutes)

About weather observations | Map of weather stations | Latest weather observations for NT | Other Formats
Station Details ID: 014299 Name: NGUKURR AIRPORT Lat: -14.72 Lon: 134.75 Height: 14.46 m
Data from the previous 72 hours. | See also: Recent months at Ngukurr AWS
Date/Time
CST
Temp
°C
App
Temp
°C
Dew
Point
Rel
Hum
%
Delta-T
°C
Wind Press
QNH
hPa
Press
MSL
hPa
Rain
since 9 am
mm
Dir
 
Spd
km/h
Gust
km/h
Spd
kts
Gust
kts
27/05:30pm 34.3 38.0 23.3 52 7.7 SE 9 13 5 7 1002.3 1002.2 0.0
27/05:00pm 33.8 36.4 21.9 49 8.1 SE 11 19 6 10 1002.3 1002.2 0.0
27/04:30pm 33.9 36.2 21.3 47 8.6 SE 11 19 6 10 1002.2 1002.1 0.0
27/04:00pm 34.4 37.3 21.8 48 8.6 SE 9 19 5 10 1002.2 1002.1 0.0
27/03:30pm 34.3 37.2 22.4 50 8.2 SSE 11 20 6 11 1002.5 1002.4 0.0
27/03:00pm 34.0 38.6 23.1 53 7.6 ESE 4 7 2 4 1002.9 1002.8 0.0
27/02:30pm 34.1 38.9 23.5 54 7.4 SW 4 7 2 4 1003.4 1003.3 0.0
27/02:00pm 33.2 37.5 22.0 51 7.7 ESE 2 7 1 4 1003.9 1003.8 0.0
27/01:30pm 33.3 37.8 23.0 54 7.1 S 4 9 2 5 1004.4 1004.3 0.0
27/01:00pm 32.5 37.9 24.5 62 5.6 SSW 4 13 2 7 1004.7 1004.6 0.0
27/12:30pm 31.8 36.0 24.1 63 5.4 W 9 15 5 8 1005.3 1005.2 0.0
27/12:00pm 31.8 36.0 24.7 66 5.0 WNW 11 17 6 9 1005.8 1005.7 0.0
27/11:30am 30.7 35.2 24.6 70 4.3 W 9 15 5 8 1006.3 1006.2 0.0
27/11:00am 29.9 35.1 24.8 74 3.6 SW 6 9 3 5 1006.4 1006.3 0.0
27/10:30am 28.9 34.0 24.7 78 2.9 W 6 9 3 5 1006.8 1006.7 0.0
27/10:00am 28.0 33.0 24.8 83 2.2 W 7 13 4 7 1007.3 1007.2 0.0
27/09:30am 27.3 32.2 24.7 86 1.8 W 7 9 4 5 1007.6 1007.5 0.0
27/09:00am 26.7 31.3 24.7 89 1.4 WNW 9 13 5 7 1008.1 1008.0 18.6
27/08:30am 26.4 31.8 25.5 95 0.6 WNW 7 15 4 8 1008.3 1008.2 18.6
27/08:00am 26.1 32.7 25.8 98 0.2 WNW 2 6 1 3 1008.1 1008.0 18.6
27/07:30am 25.8 31.9 25.6 99 0.1 SE 4 6 2 3 1007.7 1007.6 18.6
27/07:00am 25.4 31.2 25.2 99 0.1 W 4 7 2 4 1007.9 1007.8 18.6
27/06:30am 25.3 31.1 25.1 99 0.1 WSW 4 6 2 3 1006.8 1006.7 18.6
27/06:00am 25.3 30.7 25.1 99 0.1 SE 6 7 3 4 1006.0 1005.9 18.4
27/05:30am 25.3 31.8 25.0 98 0.2 CALM 0 0 0 0 1005.7 1005.6 18.4
27/05:00am 25.3 31.1 25.1 99 0.1 W 4 7 2 4 1005.9 1005.8 18.4
27/04:30am 25.3 31.4 25.1 99 0.1 SW 2 4 1 2 1005.8 1005.7 18.4
27/04:00am 25.2 30.8 24.9 98 0.2 SW 4 6 2 3 1005.9 1005.8 18.4
27/03:30am 25.4 30.7 25.2 99 0.1 WNW 7 11 4 6 1005.9 1005.8 18.4
27/03:00am 25.3 30.5 25.1 99 0.1 WNW 7 13 4 7 1005.5 1005.4 18.4
27/02:30am 25.2 30.9 25.0 99 0.1 NW 4 7 2 4 1004.5 1004.4 18.4
27/02:00am 25.3 31.8 25.0 98 0.2 CALM 0 0 0 0 1005.5 1005.4 18.4
27/01:30am 25.3 31.8 25.0 98 0.2 CALM 0 0 0 0 1006.4 1006.3 18.4
27/01:00am 25.2 30.3 25.0 99 0.1 SSE 7 13 4 7 1006.7 1006.6 18.4
27/12:30am 25.2 31.7 25.0 99 0.1 CALM 0 0 0 0 1007.6 1007.5 18.4
27/12:00am 25.0 30.2 24.8 99 0.1 SSW 6 9 3 5 1007.4 1007.3 18.4
 
Date/Time
CST
Temp
°C
App
Temp
°C
Dew
Point
Rel
Hum
%
Delta-T
°C
Wind Press
QNH
hPa
Press
MSL
hPa
Rain
since 9 am
mm
Dir
 
Spd
km/h
Gust
km/h
Spd
kts
Gust
kts
26/11:30pm 25.1 30.7 24.8 98 0.2 NNW 4 7 2 4 1007.4 1007.3 18.4
26/11:00pm 24.9 30.4 24.6 98 0.2 NNE 4 9 2 5 1007.5 1007.4 18.4
26/10:30pm 25.1 30.7 24.9 99 0.1 ENE 4 6 2 3 1007.8 1007.7 17.2
26/10:00pm 24.8 28.5 24.5 98 0.2 NNE 13 17 7 9 1007.3 1007.2 16.0
26/09:30pm 24.7 28.3 24.4 98 0.2 SE 13 19 7 10 1007.9 1007.8 10.8
26/09:00pm 26.1 29.7 23.8 87 1.6 WSW 11 19 6 10 1007.5 1007.4 0.0
26/08:30pm 27.8 30.9 23.6 78 2.9 WSW 13 20 7 11 1006.7 1006.6 0.0
26/08:00pm 28.2 32.8 23.8 77 3.0 ESE 6 11 3 6 1005.7 1005.6 0.0
26/07:30pm 28.8 32.1 23.2 71 3.8 SE 11 17 6 9 1004.9 1004.8 0.0
26/07:00pm 30.0 32.1 21.7 61 5.6 SE 13 22 7 12 1004.6 1004.5 0.0
26/06:30pm 33.7 37.0 22.5 52 7.7 NW 9 15 5 8 1003.8 1003.7 0.0
26/06:00pm 34.6 38.2 23.0 51 8.1 NNW 9 13 5 7 1003.5 1003.4 0.0
26/05:30pm 35.0 38.4 22.7 49 8.5 NW 9 17 5 9 1003.4 1003.3 0.0
26/05:00pm 34.9 39.0 23.2 50 8.1 NNW 7 13 4 7 1003.3 1003.2 0.0
26/04:30pm 35.5 39.9 23.5 50 8.4 NW 6 13 3 7 1003.4 1003.3 0.0
26/04:00pm 34.4 38.4 22.8 51 8.0 NNW 6 7 3 4 1003.5 1003.4 0.0
26/03:30pm 35.2 38.9 22.5 47 8.8 WNW 7 15 4 8 1003.9 1003.8 0.0
26/03:00pm 35.0 39.1 23.0 49 8.3 W 6 11 3 6 1004.3 1004.2 0.0
26/02:30pm 34.6 39.1 23.0 51 8.1 W 4 9 2 5 1004.6 1004.5 0.0
26/02:00pm 34.2 39.1 23.6 54 7.4 SW 4 11 2 6 1005.0 1004.9 0.0
26/01:30pm 33.4 37.8 23.4 55 7.0 WNW 6 13 3 7 1005.3 1005.2 0.0
26/01:00pm 32.7 36.4 23.3 57 6.5 W 9 17 5 9 1006.0 1005.9 0.0
26/12:30pm 32.2 36.5 23.7 61 5.9 WSW 7 11 4 6 1006.9 1006.8 0.0
26/12:00pm 31.9 36.1 23.4 60 5.9 SW 7 15 4 8 1007.6 1007.5 0.0
26/11:30am 31.2 35.2 23.8 64 5.1 W 9 17 5 9 1008.0 1007.9 0.0
26/11:00am 30.6 34.9 24.3 69 4.4 WSW 9 17 5 9 1008.5 1008.4 0.0
26/10:30am 29.5 32.8 23.2 69 4.3 SW 11 19 6 10 1009.0 1008.9 0.0
26/10:00am 28.8 33.1 23.7 74 3.5 S 7 13 4 7 1009.5 1009.4 0.0
26/09:30am 27.7 32.0 23.7 79 2.8 S 7 11 4 6 1009.9 1009.8 0.0
26/09:00am 27.2 31.8 24.1 83 2.1 SSW 7 17 4 9 1010.1 1010.0 0.0
26/08:30am 27.0 31.8 24.5 86 1.7 SSW 7 13 4 7 1010.2 1010.1 0.0
26/08:00am 26.7 31.9 24.2 86 1.7 S 4 9 2 5 1010.1 1010.0 0.0
26/07:30am 26.1 31.7 24.9 93 0.8 SSW 4 9 2 5 1009.7 1009.6 0.0
26/07:00am 25.6 31.1 25.3 98 0.2 S 6 9 3 5 1009.5 1009.4 0.0
26/06:30am 25.4 31.2 25.1 98 0.2 SE 4 6 2 3 1008.5 1008.4 0.0
26/06:00am 25.5 32.1 25.2 98 0.2 CALM 0 0 0 0 1007.8 1007.7 0.0
26/05:30am 25.6 32.0 24.9 96 0.5 CALM 0 0 0 0 1007.3 1007.2 0.0
26/05:00am 25.5 31.3 24.6 95 0.6 W 2 4 1 2 1006.7 1006.6 0.0
26/04:30am 25.6 30.9 24.4 93 0.8 W 4 7 2 4 1006.2 1006.1 0.0
26/04:00am 25.7 30.8 24.1 91 1.1 W 4 6 2 3 1006.1 1006.0 0.0
26/03:30am 26.0 30.9 23.7 87 1.6 N 4 6 2 3 1006.0 1005.9 0.0
26/03:00am 26.1 30.0 23.6 86 1.7 N 9 17 5 9 1006.3 1006.2 0.0
26/02:30am 26.1 29.2 23.6 86 1.7 N 13 20 7 11 1006.8 1006.7 0.0
26/02:00am 26.0 29.8 24.0 89 1.4 N 11 13 6 7 1007.5 1007.4 0.0
26/01:30am 25.8 30.7 24.4 92 1.0 N 6 9 3 5 1008.1 1008.0 0.0
26/01:00am 25.7 30.2 23.9 90 1.2 NW 7 11 4 6 1008.3 1008.2 0.0
26/12:30am 25.4 29.4 23.8 91 1.1 ESE 9 13 5 7 1008.6 1008.5 0.0
26/12:00am 26.4 28.4 22.9 81 2.4 SSE 17 30 9 16 1009.3 1009.2 0.0
 
Date/Time
CST
Temp
°C
App
Temp
°C
Dew
Point
Rel
Hum
%
Delta-T
°C
Wind Press
QNH
hPa
Press
MSL
hPa
Rain
since 9 am
mm
Dir
 
Spd
km/h
Gust
km/h
Spd
kts
Gust
kts
25/11:30pm 27.9 29.7 22.6 73 3.6 S 17 28 9 15 1009.5 1009.4 0.0
25/11:00pm 29.2 33.0 23.4 71 4.0 WSW 9 17 5 9 1008.6 1008.5 0.0
25/10:30pm 28.8 34.0 24.8 79 2.8 WNW 6 7 3 4 1008.2 1008.1 0.0
25/10:00pm 29.0 34.5 24.6 77 3.1 NW 4 6 2 3 1008.2 1008.1 0.0
25/09:30pm 29.0 35.1 25.6 82 2.4 NNW 4 6 2 3 1007.5 1007.4 0.0
25/09:00pm 28.9 34.9 25.5 82 2.4 NNW 4 6 2 3 1007.0 1006.9 0.0
25/08:30pm 29.2 36.4 26.2 84 2.1 CALM 0 0 0 0 1006.9 1006.8 0.0
25/08:00pm 29.5 36.4 25.7 80 2.7 CALM 0 0 0 0 1006.6 1006.5 0.0
25/07:30pm 29.9 36.6 25.4 77 3.2 CALM 0 0 0 0 1006.0 1005.9 0.0
25/07:00pm 31.4 37.0 23.5 63 5.5 CALM 0 0 0 0 1005.8 1005.7 0.0
25/06:30pm 32.7 37.2 21.5 51 7.6 CALM 0 0 0 0 1005.4 1005.3 0.0
25/06:00pm 33.8 38.3 21.6 49 8.3 CALM 0 4 0 2 1004.7 1004.6 0.0
25/05:30pm 33.4 37.1 21.5 49 8.1 SSE 4 6 2 3 1004.2 1004.1 0.0
25/05:00pm 33.0 36.3 21.8 51 7.6 SSW 7 11 4 6 1004.0 1003.9 0.0
25/04:30pm 32.6 36.2 22.4 55 7.0 S 7 9 4 5 1004.0 1003.9 0.0
25/04:00pm 33.4 37.9 23.7 56 6.8 SW 6 7 3 4 1004.5 1004.4 0.0
25/03:30pm 32.2 36.7 23.7 61 5.9 SSW 6 9 3 5 1005.5 1005.4 0.0
25/03:00pm 32.3 37.3 23.8 61 5.9 W 4 6 2 3 1006.1 1006.0 0.0
25/02:30pm 31.9 36.4 23.7 62 5.7 W 6 9 3 5 1006.7 1006.6 0.0
25/02:00pm 31.5 36.5 23.9 64 5.3 SSW 4 4 2 2 1006.9 1006.8 0.0
25/01:30pm 31.8 35.7 22.5 58 6.4 WSW 6 9 3 5 1007.3 1007.2 0.0
25/01:00pm 32.6 36.7 23.3 58 6.4 W 7 11 4 6 1007.3 1007.2 0.0
25/12:30pm 32.6 37.0 23.8 59 6.1 W 7 11 4 6 1007.5 1007.4 0.0
25/12:00pm 31.8 35.4 23.1 60 6.0 W 9 15 5 8 1007.9 1007.8 0.0
25/11:30am 31.5 35.6 23.9 64 5.3 WNW 9 15 5 8 1008.5 1008.4 0.0
25/11:00am 30.0 33.5 22.9 65 4.9 WNW 9 13 5 7 1008.9 1008.8 0.0
25/10:30am 29.2 32.1 22.4 66 4.6 WSW 11 17 6 9 1009.3 1009.2 0.0
25/10:00am 29.1 32.8 23.3 71 4.0 WSW 9 17 5 9 1009.1 1009.0 0.0
25/09:30am 28.0 32.2 23.4 76 3.2 WSW 7 13 4 7 1009.1 1009.0 0.0
25/09:00am 27.1 32.0 23.6 81 2.4 W 4 7 2 4 1009.1 1009.0 4.8
25/08:30am 26.5 31.2 23.4 83 2.1 WSW 4 7 2 4 1008.6 1008.5 4.8
25/08:00am 26.3 32.0 23.8 86 1.7 CALM 0 2 0 1 1008.6 1008.5 4.8
25/07:30am 26.0 30.8 23.5 86 1.7 WSW 4 6 2 3 1008.5 1008.4 4.8
25/07:00am 25.8 30.5 23.3 86 1.7 WSW 4 6 2 3 1008.2 1008.1 4.8
25/06:30am 25.8 30.9 23.3 86 1.7 NW 2 4 1 2 1007.7 1007.6 4.8
25/06:00am 25.9 30.0 23.0 84 2.0 WNW 6 9 3 5 1007.4 1007.3 4.8
25/05:30am 26.1 29.6 22.8 82 2.2 W 9 13 5 7 1007.3 1007.2 4.8
25/05:00am 25.9 29.9 22.8 83 2.1 W 6 9 3 5 1006.7 1006.6 4.8
25/04:30am 26.1 29.9 22.8 82 2.2 WNW 7 13 4 7 1006.5 1006.4 4.8
25/04:00am 26.1 30.1 22.8 82 2.2 W 6 9 3 5 1006.4 1006.3 4.8
25/03:30am 26.0 30.5 22.9 83 2.1 SW 4 4 2 2 1006.5 1006.4 4.8
25/03:00am 26.3 30.4 22.2 78 2.8 WNW 4 7 2 4 1006.4 1006.3 4.8
25/02:30am 26.4 30.0 22.0 77 3.0 WNW 6 9 3 5 1006.3 1006.2 4.8
25/02:00am 26.5 30.0 22.1 77 3.0 NW 7 13 4 7 1006.7 1006.6 4.8
25/01:30am 26.3 29.4 22.2 78 2.8 NW 9 13 5 7 1006.9 1006.8 4.8
25/01:00am 26.6 29.6 22.0 76 3.1 NW 9 15 5 8 1007.4 1007.3 4.8
25/12:30am 26.6 29.6 22.0 76 3.1 NW 9 17 5 9 1007.5 1007.4 4.8
25/12:00am 26.9 28.2 22.3 76 3.1 N 19 28 10 15 1007.7 1007.6 4.8
 
Date/Time
CST
Temp
°C
App
Temp
°C
Dew
Point
Rel
Hum
%
Delta-T
°C
Wind Press
QNH
hPa
Press
MSL
hPa
Rain
since 9 am
mm
Dir
 
Spd
km/h
Gust
km/h
Spd
kts
Gust
kts
24/11:30pm 27.4 28.7 22.6 75 3.3 NNW 20 35 11 19 1007.6 1007.5 4.8
24/11:00pm 27.8 31.0 23.0 75 3.3 NNW 11 17 6 9 1008.3 1008.2 4.8
24/10:30pm 27.3 31.3 22.7 76 3.1 NNW 6 9 3 5 1008.2 1008.1 4.8
24/10:00pm 27.3 30.7 22.0 73 3.6 NW 7 13 4 7 1007.8 1007.7 4.8
24/09:30pm 27.9 30.5 21.9 70 4.0 NE 11 17 6 9 1007.1 1007.0 4.4
24/09:00pm 28.7 31.3 21.2 64 5.0 NE 9 20 5 11 1006.6 1006.5 4.4
24/08:30pm 28.1 26.5 19.3 58 5.7 NE 26 39 14 21 1006.3 1006.2 4.4
24/08:22pm 28.1 27.3 22.3 70 3.9 ENE 30 48 16 26 1006.6 1006.5 4.4
24/08:16pm 28.0 25.3 21.3 67 4.5 E 37 54 20 29 1006.4 1006.3 4.0
24/08:09pm 27.2 27.1 22.2 74 3.4 E 26 54 14 29 1006.3 1006.2 1.6
24/08:00pm 29.1 29.9 21.8 64 4.9 ESE 20 32 11 17 1006.2 1006.1 0.6
24/07:30pm 28.7 29.6 21.5 65 4.8 N 19 32 10 17 1005.2 1005.1 0.6
24/07:05pm 28.3 27.0 21.3 65 4.7 NNE 30 57 16 31 1004.9 1004.8 0.4
24/07:00pm 28.0 27.5 22.2 70 3.9 NE 28 43 15 23 1005.0 1004.9 0.2
24/06:49pm 30.3 31.9 22.2 62 5.5 NE 17 50 9 27 1005.3 1005.2 0.0
24/06:30pm 30.7 31.5 20.6 54 6.7 N 17 24 9 13 1004.1 1004.0 0.0
24/06:00pm 34.7 38.9 23.1 51 8.1 NW 6 13 3 7 1003.4 1003.3 0.0

Other Formats:

Comma delimited format used in spreadsheet applications
http://www.bom.gov.au/fwo/IDD60801/IDD60801.94106.axf

JavaScript Object Notation format (JSON) in row-major order
http://www.bom.gov.au/fwo/IDD60801/IDD60801.94106.json